Time;durP1;ratioP1;P1;durP2;ratioP2;P2;SDS_P1;SDS_P2;PMS_P1;PMS_P2;Temp;Humidity;BMP_temperature;BMP_pressure;BME280_temperature;BME280_humidity;BME280_pressure;Samples;Min_cycle;Max_cycle;Signal;HPM_P1;HPM_P2
2021/12/10 00:01:59;;;;;;;64.40;57.60;;;0.50;99.90;;;;;;5042343;28;20688;-69
2021/12/10 00:04:48;;;;;;;64.53;57.67;;;0.60;99.90;;;;;;5039296;28;20248;-70
2021/12/10 00:07:38;;;;;;;64.37;57.43;;;0.60;99.90;;;;;;5041366;28;20236;-71
2021/12/10 00:10:32;;;;;;;66.37;58.67;;;0.70;99.90;;;;;;5056096;28;20689;-70
2021/12/10 00:13:21;;;;;;;64.53;55.57;;;0.60;99.90;;;;;;5039145;28;20308;-70
2021/12/10 00:16:10;;;;;;;65.90;57.40;;;0.60;99.90;;;;;;5042644;28;20221;-71
2021/12/10 00:19:11;;;;;;;65.57;57.43;;;0.50;99.90;;;;;;5038459;28;20217;-70
2021/12/10 00:22:05;;;;;;;63.53;55.67;;;0.60;99.90;;;;;;5038815;28;20223;-71
2021/12/10 00:24:55;;;;;;;61.40;54.87;;;0.50;99.90;;;;;;5040026;28;21021;-70
2021/12/10 00:27:46;;;;;;;60.70;54.37;;;0.50;99.90;;;;;;5041614;28;20228;-68
2021/12/10 00:30:44;;;;;;;64.93;55.93;;;0.40;99.90;;;;;;5038523;28;20231;-70
2021/12/10 00:33:37;;;;;;;67.53;58.87;;;0.50;99.90;;;;;;5041468;28;20715;-70
2021/12/10 00:36:30;;;;;;;68.67;58.20;;;0.40;99.90;;;;;;5042486;28;20227;-70
2021/12/10 00:39:22;;;;;;;72.53;59.93;;;0.40;99.90;;;;;;5055439;28;20224;-70
2021/12/10 00:42:17;;;;;;;65.50;58.43;;;0.40;99.90;;;;;;5054847;28;20251;-69
2021/12/10 00:45:11;;;;;;;65.73;55.93;;;0.50;99.90;;;;;;5044529;28;20221;-70
2021/12/10 00:48:01;;;;;;;70.07;58.43;;;0.50;99.90;;;;;;5040578;28;20351;-70
2021/12/10 00:50:55;;;;;;;74.83;58.37;;;0.60;99.90;;;;;;5040481;28;20316;-70
2021/12/10 00:53:44;;;;;;;77.83;61.20;;;0.60;99.90;;;;;;5039295;28;20221;-69
2021/12/10 00:56:33;;;;;;;69.13;59.20;;;0.60;99.90;;;;;;5053601;28;20270;-69
2021/12/10 00:59:22;;;;;;;76.13;57.23;;;0.60;99.90;;;;;;5043148;28;20232;-70
2021/12/10 01:02:15;;;;;;;80.57;61.03;;;0.50;99.90;;;;;;5033621;28;20221;-69
2021/12/10 01:05:05;;;;;;;72.80;57.23;;;0.70;99.90;;;;;;5047882;28;20581;-70
2021/12/10 01:07:54;;;;;;;79.27;58.70;;;0.60;99.90;;;;;;5038487;28;20225;-71
2021/12/10 01:10:49;;;;;;;76.27;58.10;;;0.50;99.90;;;;;;5043261;28;20257;-70
2021/12/10 01:13:41;;;;;;;74.50;57.87;;;0.50;99.90;;;;;;5043565;28;20229;-69
2021/12/10 01:25:54;;;;;;;81.90;59.40;;;0.50;99.90;;;;;;5041109;28;20223;-70
2021/12/10 01:28:47;;;;;;;78.50;60.83;;;0.60;99.90;;;;;;5057023;28;20231;-72
2021/12/10 01:31:37;;;;;;;73.60;59.07;;;0.70;99.90;;;;;;5040716;28;20233;-71
2021/12/10 01:34:29;;;;;;;78.47;58.80;;;0.70;99.90;;;;;;5051968;28;20220;-70
2021/12/10 01:37:20;;;;;;;77.80;60.03;;;0.70;99.90;;;;;;5039154;28;20247;-69
2021/12/10 01:40:11;;;;;;;78.83;60.13;;;0.80;99.90;;;;;;5039343;28;20230;-68
2021/12/10 01:43:06;;;;;;;73.77;59.20;;;0.70;99.90;;;;;;5043325;28;21881;-69
2021/12/10 01:46:01;;;;;;;72.27;57.40;;;0.70;99.90;;;;;;5039784;28;20213;-70
2021/12/10 01:48:52;;;;;;;71.80;56.83;;;0.70;99.90;;;;;;5042574;28;20229;-69
2021/12/10 01:51:47;;;;;;;80.20;60.63;;;0.70;99.90;;;;;;5034860;28;20290;-69
2021/12/10 01:54:41;;;;;;;74.73;58.47;;;0.60;99.90;;;;;;5040360;28;20228;-69
2021/12/10 01:57:34;;;;;;;80.63;56.83;;;0.80;99.90;;;;;;5056422;28;20265;-69
2021/12/10 02:00:27;;;;;;;81.00;59.57;;;0.80;99.90;;;;;;5081931;28;20825;-69
2021/12/10 02:03:17;;;;;;;72.33;57.17;;;0.80;99.90;;;;;;5079140;28;20216;-69
2021/12/10 02:06:07;;;;;;;85.87;59.07;;;0.70;99.90;;;;;;5077077;28;20237;-69
2021/12/10 02:08:56;;;;;;;81.13;58.10;;;0.80;99.90;;;;;;5079925;28;20227;-70
2021/12/10 02:11:46;;;;;;;80.20;58.10;;;0.80;99.90;;;;;;5082416;28;20341;-70
2021/12/10 02:14:35;;;;;;;62.53;53.43;;;0.80;99.90;;;;;;5077621;28;20224;-70
2021/12/10 02:17:24;;;;;;;69.47;52.73;;;0.70;99.90;;;;;;5077278;28;20227;-69
2021/12/10 02:20:16;;;;;;;80.07;57.93;;;0.60;99.90;;;;;;5053335;28;20691;-70
2021/12/10 02:23:08;;;;;;;84.90;59.10;;;0.70;99.90;;;;;;5073943;28;20219;-70
2021/12/10 02:25:57;;;;;;;81.83;60.27;;;0.70;99.90;;;;;;5082296;28;20220;-72
2021/12/10 02:28:46;;;;;;;79.97;57.50;;;0.70;99.90;;;;;;5063651;28;20227;-70
2021/12/10 02:31:39;;;;;;;79.43;59.77;;;0.80;99.90;;;;;;5071338;28;20215;-69
2021/12/10 02:34:28;;;;;;;71.60;58.60;;;0.80;99.90;;;;;;5082910;28;20223;-69
2021/12/10 02:37:17;;;;;;;68.73;54.47;;;0.80;99.90;;;;;;5070011;28;20233;-70
2021/12/10 02:40:09;;;;;;;63.33;56.40;;;0.80;99.90;;;;;;5071321;28;20230;-70
2021/12/10 02:43:02;;;;;;;69.90;56.00;;;0.80;99.90;;;;;;5082326;28;20221;-70
2021/12/10 02:45:55;;;;;;;72.13;57.20;;;0.80;99.90;;;;;;5076435;28;20223;-69
2021/12/10 02:48:44;;;;;;;65.57;55.50;;;0.70;99.90;;;;;;5082740;28;20733;-70
2021/12/10 02:51:35;;;;;;;69.27;57.77;;;0.80;99.90;;;;;;5081021;28;20238;-71
2021/12/10 02:54:33;;;;;;;60.43;54.13;;;0.80;99.90;;;;;;5081535;28;20230;-71
2021/12/10 02:57:25;;;;;;;68.57;56.57;;;0.90;99.90;;;;;;5069676;28;20238;-70
2021/12/10 03:00:19;;;;;;;63.23;54.53;;;0.90;99.90;;;;;;5062064;28;20216;-69
2021/12/10 03:03:08;;;;;;;70.87;59.77;;;0.90;99.90;;;;;;5079019;28;20242;-70
2021/12/10 03:05:57;;;;;;;70.30;56.87;;;0.90;99.90;;;;;;5057565;28;20627;-71
2021/12/10 03:08:49;;;;;;;74.47;61.60;;;0.90;99.90;;;;;;5056870;28;20224;-69
2021/12/10 03:11:38;;;;;;;67.70;55.07;;;0.90;99.90;;;;;;5077609;28;21121;-71
2021/12/10 03:14:35;;;;;;;71.00;55.93;;;0.90;99.90;;;;;;5079987;28;20310;-67
2021/12/10 03:17:25;;;;;;;67.43;58.50;;;0.80;99.90;;;;;;5064572;28;20219;-70
2021/12/10 03:20:18;;;;;;;73.23;56.73;;;0.90;99.90;;;;;;5067538;28;20215;-69
2021/12/10 03:23:09;;;;;;;70.27;58.13;;;0.90;99.90;;;;;;5065996;28;20276;-70
2021/12/10 03:25:58;;;;;;;77.17;55.27;;;0.90;99.90;;;;;;5075819;28;20219;-70
2021/12/10 03:28:49;;;;;;;71.67;58.50;;;0.90;99.90;;;;;;5079968;28;20228;-70
2021/12/10 03:31:39;;;;;;;71.00;58.37;;;1.00;99.90;;;;;;5079984;28;20549;-71
2021/12/10 03:34:28;;;;;;;71.83;57.57;;;1.10;99.90;;;;;;5082117;28;20215;-70
2021/12/10 03:37:19;;;;;;;75.83;60.73;;;1.00;99.90;;;;;;5085601;28;20227;-69
2021/12/10 03:40:11;;;;;;;72.37;57.67;;;1.10;99.90;;;;;;5094765;28;21029;-73
2021/12/10 03:43:00;;;;;;;68.60;56.23;;;1.00;99.90;;;;;;5085785;28;20223;-71
2021/12/10 03:45:56;;;;;;;67.70;56.33;;;1.10;99.90;;;;;;5085462;28;20226;-70
2021/12/10 03:48:47;;;;;;;65.87;56.93;;;1.20;99.90;;;;;;5085889;28;20223;-70
2021/12/10 03:51:37;;;;;;;62.93;56.07;;;1.10;99.90;;;;;;5084222;28;20223;-70
2021/12/10 03:54:26;;;;;;;60.30;53.77;;;1.10;99.90;;;;;;5083956;28;21887;-70
2021/12/10 03:57:14;;;;;;;61.53;54.70;;;1.20;99.90;;;;;;5086304;28;20238;-69
2021/12/10 04:00:04;;;;;;;62.43;55.87;;;1.20;99.90;;;;;;5085558;28;20261;-69
2021/12/10 04:02:53;;;;;;;66.50;57.67;;;1.20;99.90;;;;;;5084931;28;20777;-69
2021/12/10 04:05:44;;;;;;;63.47;56.53;;;1.30;99.90;;;;;;5079107;28;20239;-69
2021/12/10 04:08:33;;;;;;;65.40;55.40;;;1.20;99.90;;;;;;5084492;28;20240;-68
2021/12/10 04:11:22;;;;;;;61.20;54.57;;;1.20;99.90;;;;;;5074203;28;20226;-68
2021/12/10 04:14:11;;;;;;;62.43;56.10;;;1.20;99.90;;;;;;5074641;28;20230;-64
2021/12/10 04:17:00;;;;;;;63.23;56.40;;;1.20;99.90;;;;;;5090287;28;20227;-68
2021/12/10 04:19:50;;;;;;;61.80;55.20;;;1.30;99.90;;;;;;5085207;28;20235;-69
2021/12/10 04:22:42;;;;;;;60.47;53.80;;;1.20;99.90;;;;;;5067222;28;20226;-68
2021/12/10 04:25:30;;;;;;;60.33;53.93;;;1.30;99.90;;;;;;5079870;28;20219;-70
2021/12/10 04:28:21;;;;;;;58.97;52.43;;;1.30;99.90;;;;;;5081281;28;20252;-68
2021/12/10 04:31:10;;;;;;;61.97;54.40;;;1.30;99.90;;;;;;5086784;28;20702;-69
2021/12/10 04:34:00;;;;;;;58.87;52.53;;;1.30;99.90;;;;;;5070104;28;20224;-69
2021/12/10 04:36:48;;;;;;;58.20;52.60;;;1.30;99.90;;;;;;5062121;28;20225;-69
2021/12/10 04:39:45;;;;;;;61.90;55.47;;;1.30;99.90;;;;;;5069346;28;20330;-69
2021/12/10 04:42:34;;;;;;;59.73;53.73;;;1.30;99.90;;;;;;5062881;28;20223;-68
2021/12/10 04:45:23;;;;;;;62.63;55.83;;;1.30;99.90;;;;;;5055577;28;20303;-70
2021/12/10 04:48:11;;;;;;;60.30;54.17;;;1.30;99.90;;;;;;5071731;28;20214;-70
2021/12/10 04:51:00;;;;;;;60.67;54.40;;;1.40;99.90;;;;;;5065995;28;20264;-68
2021/12/10 04:53:50;;;;;;;57.17;51.37;;;1.40;99.90;;;;;;5064758;28;20239;-69
2021/12/10 04:56:41;;;;;;;59.93;54.07;;;1.40;99.90;;;;;;5078737;28;20260;-68
2021/12/10 04:59:31;;;;;;;58.00;52.50;;;1.40;99.90;;;;;;5085565;28;20215;-69
2021/12/10 05:02:20;;;;;;;62.63;55.93;;;1.40;99.90;;;;;;5066413;28;20216;-70
2021/12/10 05:05:10;;;;;;;58.57;52.50;;;1.40;99.90;;;;;;5075734;28;20229;-69
2021/12/10 05:07:59;;;;;;;57.63;52.27;;;1.40;99.90;;;;;;5082358;28;20226;-70
2021/12/10 05:10:49;;;;;;;61.67;55.07;;;1.40;99.90;;;;;;5083925;28;20227;-70
2021/12/10 05:13:41;;;;;;;55.93;50.93;;;1.50;99.90;;;;;;5078451;28;20309;-70
2021/12/10 05:16:30;;;;;;;61.27;55.13;;;1.50;99.90;;;;;;5082110;28;20975;-71
2021/12/10 05:19:23;;;;;;;58.90;53.30;;;1.40;99.90;;;;;;5082535;28;20298;-71
2021/12/10 05:22:13;;;;;;;59.03;52.97;;;1.50;99.90;;;;;;5081694;28;20224;-69
2021/12/10 05:25:02;;;;;;;57.97;51.97;;;1.50;99.90;;;;;;5058641;28;20322;-68
2021/12/10 05:27:50;;;;;;;56.60;51.00;;;1.50;99.90;;;;;;5060198;28;20232;-70
2021/12/10 05:30:41;;;;;;;58.20;52.37;;;1.50;99.90;;;;;;5078723;28;20596;-69
2021/12/10 05:33:29;;;;;;;57.97;52.67;;;1.60;99.90;;;;;;5086572;27;20227;-69
2021/12/10 05:36:19;;;;;;;58.70;52.93;;;1.60;99.90;;;;;;5067036;28;20222;-69
2021/12/10 05:39:10;;;;;;;58.53;52.53;;;1.60;99.90;;;;;;5082703;28;20239;-70
2021/12/10 05:42:00;;;;;;;58.37;53.13;;;1.60;99.90;;;;;;5079717;28;20242;-70
2021/12/10 05:44:51;;;;;;;58.40;52.63;;;1.60;99.90;;;;;;5080642;28;20228;-70
2021/12/10 05:47:41;;;;;;;57.57;51.73;;;1.70;99.90;;;;;;5092362;27;20216;-70
2021/12/10 05:50:31;;;;;;;57.40;51.93;;;1.80;99.90;;;;;;5083240;28;20215;-70
2021/12/10 05:53:20;;;;;;;59.13;53.53;;;1.80;99.90;;;;;;5059819;28;20234;-67
2021/12/10 05:56:09;;;;;;;56.70;51.77;;;1.80;99.90;;;;;;5074452;28;20228;-64
2021/12/10 05:58:59;;;;;;;56.90;51.10;;;1.80;99.90;;;;;;5060873;28;20243;-69
2021/12/10 06:01:48;;;;;;;58.43;52.87;;;1.90;99.90;;;;;;5056571;28;20232;-70
2021/12/10 06:04:38;;;;;;;56.80;51.13;;;1.90;99.90;;;;;;5065526;28;20215;-71
2021/12/10 06:07:27;;;;;;;58.60;53.37;;;1.90;99.90;;;;;;5081960;28;20231;-70
2021/12/10 06:10:18;;;;;;;56.07;50.70;;;1.90;99.90;;;;;;5083376;28;20219;-69
2021/12/10 06:13:07;;;;;;;54.73;49.97;;;2.00;99.90;;;;;;5068880;28;20223;-70
2021/12/10 06:15:56;;;;;;;55.80;50.73;;;2.00;99.90;;;;;;5071105;28;20236;-70
2021/12/10 06:18:49;;;;;;;55.37;50.17;;;1.90;99.90;;;;;;5066467;28;20235;-71
2021/12/10 06:21:40;;;;;;;57.13;52.13;;;2.00;99.90;;;;;;5079520;28;20219;-71
2021/12/10 06:24:29;;;;;;;56.73;51.87;;;2.00;99.90;;;;;;5090275;28;20235;-70
2021/12/10 06:27:18;;;;;;;56.00;50.67;;;2.00;99.90;;;;;;5066246;28;20238;-71
2021/12/10 06:30:08;;;;;;;57.80;52.53;;;2.00;99.90;;;;;;5065323;28;20328;-69
2021/12/10 06:32:58;;;;;;;58.20;52.70;;;2.10;99.90;;;;;;5081280;28;20219;-69
2021/12/10 06:35:49;;;;;;;58.93;53.17;;;2.10;99.90;;;;;;5079002;28;20591;-71
2021/12/10 06:38:42;;;;;;;59.10;53.50;;;2.10;99.90;;;;;;5076671;28;21027;-69
2021/12/10 06:41:31;;;;;;;56.60;51.53;;;2.10;99.90;;;;;;5091116;28;20216;-69
2021/12/10 06:44:20;;;;;;;57.90;52.73;;;2.10;99.90;;;;;;5065019;28;20307;-71
2021/12/10 06:47:09;;;;;;;57.83;52.57;;;2.10;99.90;;;;;;5064414;28;20318;-69
2021/12/10 06:49:58;;;;;;;58.83;52.90;;;2.10;99.90;;;;;;5076734;28;20220;-69
2021/12/10 06:52:47;;;;;;;58.30;52.77;;;2.10;99.90;;;;;;5091703;28;20553;-70
2021/12/10 06:55:38;;;;;;;57.73;52.27;;;2.10;99.90;;;;;;5078924;28;20231;-70
2021/12/10 06:58:28;;;;;;;58.00;52.50;;;2.20;99.90;;;;;;5081708;28;20703;-69
2021/12/10 07:01:22;;;;;;;57.60;52.17;;;2.10;99.90;;;;;;5077745;28;20241;-69
2021/12/10 07:04:13;;;;;;;58.43;53.07;;;2.20;99.90;;;;;;5050751;28;20228;-68
2021/12/10 07:07:06;;;;;;;59.03;53.70;;;2.20;99.90;;;;;;5081879;28;20722;-68
2021/12/10 07:09:54;;;;;;;58.77;53.27;;;2.20;99.90;;;;;;5075877;28;20215;-70
2021/12/10 07:12:45;;;;;;;58.30;53.00;;;2.20;99.90;;;;;;5059713;28;20239;-71
2021/12/10 07:15:35;;;;;;;59.43;53.60;;;2.20;99.90;;;;;;5078054;28;20234;-70
2021/12/10 07:18:25;;;;;;;59.33;54.00;;;2.20;99.90;;;;;;5075206;28;20711;-71
2021/12/10 07:21:14;;;;;;;60.50;54.30;;;2.20;99.90;;;;;;5064337;28;20776;-69
2021/12/10 07:24:06;;;;;;;61.25;55.38;;;2.20;99.90;;;;;;5084151;28;20499;-66
2021/12/10 07:26:55;;;;;;;59.92;54.08;;;2.30;99.90;;;;;;5054711;28;21035;-66
2021/12/10 07:29:47;;;;;;;60.93;55.20;;;2.30;99.90;;;;;;5080594;28;20230;-66
2021/12/10 07:32:37;;;;;;;61.47;55.50;;;2.20;99.90;;;;;;5082090;28;20258;-67
2021/12/10 07:35:26;;;;;;;58.53;52.90;;;2.30;99.90;;;;;;5069719;28;20235;-66
2021/12/10 07:38:15;;;;;;;62.73;56.30;;;2.30;99.90;;;;;;5074293;28;20324;-67
2021/12/10 07:41:06;;;;;;;66.50;59.70;;;2.30;99.90;;;;;;5068521;28;20223;-64
2021/12/10 07:43:55;;;;;;;68.57;61.50;;;2.30;99.90;;;;;;5078650;28;20239;-66
2021/12/10 07:46:45;;;;;;;66.37;59.70;;;2.30;99.90;;;;;;5079227;28;20219;-67
2021/12/10 07:49:37;;;;;;;66.90;60.47;;;2.40;99.90;;;;;;5079268;28;20238;-67
2021/12/10 07:52:28;;;;;;;67.80;61.33;;;2.40;99.90;;;;;;5064808;28;20232;-66
2021/12/10 07:55:20;;;;;;;68.90;62.03;;;2.30;99.90;;;;;;5059998;28;20232;-67
2021/12/10 07:58:09;;;;;;;65.90;59.43;;;2.40;99.90;;;;;;5073477;28;20228;-65
2021/12/10 08:00:58;;;;;;;68.97;62.23;;;2.40;99.90;;;;;;5045780;28;20242;-66
2021/12/10 08:03:53;;;;;;;69.37;62.17;;;2.40;99.90;;;;;;5039235;28;20292;-66
2021/12/10 08:06:41;;;;;;;72.17;64.60;;;2.50;99.90;;;;;;5050707;28;20273;-66
2021/12/10 08:09:30;;;;;;;70.83;63.80;;;2.40;99.90;;;;;;5049374;28;20577;-66
2021/12/10 08:12:19;;;;;;;68.90;61.93;;;2.40;99.90;;;;;;5038479;28;20638;-66
2021/12/10 08:15:10;;;;;;;73.00;65.57;;;2.50;99.90;;;;;;5055006;28;20235;-66
2021/12/10 08:17:59;;;;;;;72.17;65.03;;;2.50;99.90;;;;;;5062120;28;20242;-66
2021/12/10 08:20:49;;;;;;;71.67;64.90;;;2.50;99.90;;;;;;5061741;28;20228;-67
2021/12/10 08:23:39;;;;;;;72.37;65.20;;;2.50;99.90;;;;;;5064715;28;20219;-65
2021/12/10 08:26:28;;;;;;;70.30;63.20;;;2.50;99.90;;;;;;5062991;28;20983;-66
2021/12/10 08:29:20;;;;;;;72.47;65.13;;;2.40;99.90;;;;;;5062829;28;20224;-65
2021/12/10 08:32:12;;;;;;;75.60;67.83;;;2.50;99.90;;;;;;5062578;28;20224;-65
2021/12/10 08:35:03;;;;;;;75.13;67.10;;;2.50;99.90;;;;;;5051944;28;20225;-66
2021/12/10 08:37:54;;;;;;;77.47;69.47;;;2.50;99.90;;;;;;5066789;28;20213;-68
2021/12/10 08:40:47;;;;;;;78.63;70.70;;;2.50;99.90;;;;;;5057166;28;20286;-64
2021/12/10 08:43:36;;;;;;;79.07;71.10;;;2.50;99.90;;;;;;5042406;28;20231;-66
2021/12/10 08:46:27;;;;;;;75.67;67.97;;;2.60;99.90;;;;;;5048673;28;20269;-65
2021/12/10 08:49:17;;;;;;;76.77;68.87;;;2.60;99.90;;;;;;5061858;28;20226;-66
2021/12/10 08:52:08;;;;;;;77.77;69.77;;;2.60;99.90;;;;;;5062044;28;20309;-66
2021/12/10 08:54:58;;;;;;;78.30;70.33;;;2.60;99.90;;;;;;5063489;28;20243;-66
2021/12/10 08:57:47;;;;;;;77.53;69.57;;;2.70;99.90;;;;;;5052309;28;20225;-66
2021/12/10 09:00:38;;;;;;;76.97;68.90;;;2.70;99.90;;;;;;5040081;28;20229;-66
2021/12/10 09:03:27;;;;;;;80.07;71.80;;;2.70;99.90;;;;;;5021645;28;20225;-65
2021/12/10 09:06:19;;;;;;;78.60;68.83;;;2.60;99.90;;;;;;5043757;28;20244;-65
2021/12/10 09:09:10;;;;;;;83.07;74.27;;;2.60;99.90;;;;;;5055993;28;20795;-66
2021/12/10 09:12:04;;;;;;;80.30;71.50;;;2.70;99.90;;;;;;5064968;28;20225;-67
2021/12/10 09:14:55;;;;;;;88.67;74.47;;;2.70;99.90;;;;;;5039452;28;20235;-66
2021/12/10 09:17:44;;;;;;;89.00;73.40;;;2.70;99.90;;;;;;5038661;28;20225;-66
2021/12/10 09:20:38;;;;;;;95.97;77.00;;;2.60;99.90;;;;;;5025278;28;20232;-67
2021/12/10 09:23:28;;;;;;;99.27;78.50;;;2.70;99.90;;;;;;5055452;28;20221;-66
2021/12/10 09:26:24;;;;;;;98.67;79.80;;;2.70;99.90;;;;;;5049535;28;20225;-66
2021/12/10 09:29:19;;;;;;;101.60;80.13;;;2.80;99.90;;;;;;5027175;28;20316;-67
2021/12/10 09:32:11;;;;;;;98.87;78.23;;;2.80;99.90;;;;;;5041660;28;20224;-66
2021/12/10 09:35:05;;;;;;;99.53;80.40;;;2.90;99.90;;;;;;5042566;28;20228;-67
2021/12/10 09:37:55;;;;;;;105.80;81.60;;;2.90;99.90;;;;;;5037209;28;20301;-67
2021/12/10 09:40:47;;;;;;;106.17;79.33;;;3.00;99.90;;;;;;5062518;28;20221;-65
2021/12/10 09:43:37;;;;;;;109.03;81.93;;;2.90;99.90;;;;;;5050437;28;20217;-67
2021/12/10 09:46:28;;;;;;;109.57;84.57;;;3.00;99.90;;;;;;5038475;28;20224;-66
2021/12/10 09:49:18;;;;;;;104.67;78.43;;;3.00;99.90;;;;;;5040342;28;20243;-67
2021/12/10 09:52:09;;;;;;;107.70;82.67;;;2.90;99.90;;;;;;5040984;28;20315;-67
2021/12/10 09:54:58;;;;;;;117.80;81.73;;;2.90;99.90;;;;;;5043690;28;20228;-67
2021/12/10 09:57:51;;;;;;;100.73;76.83;;;2.90;99.90;;;;;;5054424;28;20228;-65
2021/12/10 10:00:44;;;;;;;107.87;81.80;;;3.00;99.90;;;;;;5081134;28;20750;-69
2021/12/10 10:03:39;;;;;;;106.47;79.67;;;3.00;99.90;;;;;;5074173;28;20325;-67
2021/12/10 10:06:29;;;;;;;112.67;79.40;;;3.00;99.90;;;;;;5065569;28;21202;-67
2021/12/10 10:09:21;;;;;;;105.00;81.67;;;2.90;99.90;;;;;;5080728;28;20218;-68
2021/12/10 10:12:14;;;;;;;101.20;80.30;;;2.90;99.90;;;;;;5067244;28;20303;-66
2021/12/10 10:15:09;;;;;;;105.77;82.63;;;3.00;99.90;;;;;;5078792;28;20216;-67
2021/12/10 10:18:14;;;;;;;101.67;79.43;;;3.00;99.90;;;;;;5066378;28;20219;-67
2021/12/10 10:21:08;;;;;;;106.77;80.43;;;3.00;99.90;;;;;;5079674;28;20539;-66
2021/12/10 10:23:58;;;;;;;94.57;74.43;;;3.00;99.90;;;;;;5079448;28;20227;-66
2021/12/10 10:26:52;;;;;;;104.77;78.43;;;3.10;99.90;;;;;;5072635;28;20269;-66
2021/12/10 10:29:45;;;;;;;98.37;76.67;;;3.00;99.90;;;;;;5060132;28;20219;-67
2021/12/10 10:32:35;;;;;;;101.07;75.30;;;3.00;99.90;;;;;;5064166;28;21421;-68
2021/12/10 10:35:28;;;;;;;90.03;75.63;;;3.10;99.90;;;;;;5080829;28;20311;-70
2021/12/10 10:38:20;;;;;;;95.30;72.77;;;3.10;99.90;;;;;;5067748;28;20721;-65
2021/12/10 10:41:11;;;;;;;89.40;71.07;;;3.10;99.90;;;;;;5081494;28;20227;-67
2021/12/10 10:44:01;;;;;;;91.83;73.93;;;3.10;99.90;;;;;;5059736;28;20218;-66
2021/12/10 10:46:52;;;;;;;86.97;73.73;;;3.10;99.90;;;;;;5063579;28;20576;-66
2021/12/10 10:49:43;;;;;;;88.13;69.73;;;3.20;99.90;;;;;;5060446;28;20226;-67
2021/12/10 10:52:36;;;;;;;93.40;73.63;;;3.20;99.90;;;;;;5074019;28;20974;-68
2021/12/10 10:55:33;;;;;;;87.63;72.07;;;3.20;99.90;;;;;;5055297;28;20599;-66
2021/12/10 10:58:25;;;;;;;87.47;73.87;;;3.20;99.90;;;;;;5063376;28;20665;-67
2021/12/10 11:01:24;;;;;;;84.63;69.90;;;3.20;99.90;;;;;;5077203;28;20277;-66
2021/12/10 11:04:36;;;;;;;87.80;72.50;;;3.30;99.90;;;;;;5064501;28;20268;-67
2021/12/10 11:07:27;;;;;;;86.67;71.07;;;3.30;99.90;;;;;;5077769;28;20230;-68
2021/12/10 11:10:27;;;;;;;83.03;73.77;;;3.30;99.90;;;;;;5082740;28;20226;-66
2021/12/10 11:13:20;;;;;;;84.47;72.47;;;3.30;99.90;;;;;;5080849;28;20272;-67
2021/12/10 11:16:12;;;;;;;91.43;74.90;;;3.30;99.90;;;;;;5074946;28;20357;-66
2021/12/10 11:19:05;;;;;;;84.37;70.40;;;3.40;99.90;;;;;;5078070;28;20227;-65
2021/12/10 11:21:59;;;;;;;86.37;70.53;;;3.30;99.90;;;;;;5066757;28;20232;-68
2021/12/10 11:24:51;;;;;;;79.90;68.93;;;3.30;99.90;;;;;;5079162;28;20243;-66
2021/12/10 11:27:44;;;;;;;86.77;72.20;;;3.30;99.90;;;;;;5068361;28;20225;-65
2021/12/10 11:30:33;;;;;;;84.77;72.47;;;3.30;99.90;;;;;;5077952;28;20298;-67
2021/12/10 11:33:24;;;;;;;85.33;72.47;;;3.30;99.90;;;;;;5079787;28;20309;-67
2021/12/10 11:36:17;;;;;;;83.43;69.53;;;3.40;99.90;;;;;;5078369;28;20231;-66
2021/12/10 11:39:06;;;;;;;99.00;73.53;;;3.30;99.90;;;;;;5075752;28;20215;-66
2021/12/10 11:41:55;;;;;;;84.00;70.77;;;3.30;99.90;;;;;;5078277;28;20231;-66
2021/12/10 11:45:04;;;;;;;88.40;72.13;;;3.30;99.90;;;;;;5079540;28;20231;-66
2021/12/10 11:48:04;;;;;;;83.80;73.23;;;3.40;99.90;;;;;;5069844;28;20359;-65
2021/12/10 11:51:04;;;;;;;93.47;76.80;;;3.40;99.90;;;;;;5080311;28;20599;-67
2021/12/10 11:53:59;;;;;;;90.10;73.27;;;3.50;99.90;;;;;;5081798;28;20329;-67
2021/12/10 11:56:51;;;;;;;95.33;76.40;;;3.50;99.90;;;;;;5077926;28;20377;-67
2021/12/10 11:59:45;;;;;;;93.90;73.13;;;3.50;99.90;;;;;;5068989;28;20219;-68
2021/12/10 12:02:46;;;;;;;89.53;76.43;;;3.50;99.90;;;;;;5080261;28;20219;-68
2021/12/10 12:05:38;;;;;;;90.80;78.03;;;3.40;99.90;;;;;;5083980;28;20687;-69
2021/12/10 12:08:27;;;;;;;92.80;74.77;;;3.40;99.90;;;;;;5085663;28;20296;-65
2021/12/10 12:11:16;;;;;;;92.83;74.53;;;3.40;99.90;;;;;;5084685;28;20225;-64
2021/12/10 12:14:27;;;;;;;98.60;77.47;;;3.40;99.90;;;;;;5067552;28;20696;-64
2021/12/10 12:17:33;;;;;;;95.40;75.77;;;3.40;99.90;;;;;;5082492;28;20277;-66
2021/12/10 12:20:34;;;;;;;102.53;76.27;;;3.40;99.90;;;;;;5080779;28;20248;-67
2021/12/10 12:26:31;;;;;;;99.93;77.87;;;3.40;99.90;;;;;;5045864;28;20724;-67
2021/12/10 12:29:42;;;;;;;112.17;81.30;;;3.40;99.90;;;;;;5070153;28;20240;-66
2021/12/10 12:32:37;;;;;;;99.07;76.87;;;3.30;99.90;;;;;;5067326;28;20667;-67
2021/12/10 12:35:32;;;;;;;103.50;78.30;;;3.30;99.90;;;;;;5095125;27;20219;-66
2021/12/10 12:38:27;;;;;;;108.27;80.63;;;3.30;99.90;;;;;;5066685;28;20354;-69
2021/12/10 12:41:39;;;;;;;103.67;79.50;;;3.40;99.90;;;;;;5083660;28;20295;-65
2021/12/10 12:44:30;;;;;;;106.30;79.67;;;3.30;99.90;;;;;;5085358;28;20225;-66
2021/12/10 12:47:41;;;;;;;107.07;78.63;;;3.40;99.90;;;;;;5082107;28;20238;-66
2021/12/10 12:50:34;;;;;;;107.33;78.53;;;3.40;99.90;;;;;;5081499;28;20227;-67
2021/12/10 12:53:29;;;;;;;103.17;79.73;;;3.40;99.90;;;;;;5075520;28;20247;-67
2021/12/10 12:56:20;;;;;;;101.90;79.07;;;3.40;99.90;;;;;;5067651;28;20751;-67
2021/12/10 12:59:29;;;;;;;109.30;81.43;;;3.40;99.90;;;;;;5084510;28;20250;-66
2021/12/10 13:02:26;;;;;;;100.80;78.07;;;3.40;99.90;;;;;;5079764;28;20303;-65
2021/12/10 13:05:16;;;;;;;110.87;80.37;;;3.40;99.90;;;;;;5066362;28;20227;-66
2021/12/10 13:08:10;;;;;;;105.57;77.87;;;3.30;99.90;;;;;;5058669;28;20216;-66
2021/12/10 13:11:24;;;;;;;115.67;82.47;;;3.30;99.90;;;;;;5056699;28;20270;-67
2021/12/10 13:14:15;;;;;;;112.27;82.43;;;3.30;99.90;;;;;;5052430;28;20280;-66
2021/12/10 13:17:12;;;;;;;101.90;80.67;;;3.40;99.90;;;;;;5057235;28;20272;-67
2021/12/10 13:20:05;;;;;;;108.27;82.07;;;3.40;99.90;;;;;;5052353;28;20213;-65
2021/12/10 13:22:57;;;;;;;104.93;77.50;;;3.40;99.90;;;;;;5063088;28;20227;-65
2021/12/10 13:25:50;;;;;;;99.50;79.77;;;3.40;99.90;;;;;;5051455;28;20227;-64
2021/12/10 13:28:40;;;;;;;98.37;78.90;;;3.40;99.90;;;;;;5074284;28;20292;-65
2021/12/10 13:31:30;;;;;;;98.83;80.40;;;3.40;99.90;;;;;;5076069;28;20211;-65
2021/12/10 13:34:19;;;;;;;104.37;81.23;;;3.40;99.90;;;;;;5066748;28;20980;-71
2021/12/10 13:37:11;;;;;;;100.97;76.23;;;3.50;99.90;;;;;;5061462;28;20261;-70
2021/12/10 13:40:00;;;;;;;103.87;77.67;;;3.40;99.90;;;;;;5082221;28;20217;-69
2021/12/10 13:42:51;;;;;;;100.20;77.47;;;3.50;99.90;;;;;;5083076;28;20239;-68
2021/12/10 13:45:43;;;;;;;105.63;77.17;;;3.50;99.90;;;;;;5094166;27;20564;-70
2021/12/10 13:48:39;;;;;;;105.53;77.03;;;3.50;99.90;;;;;;5065049;28;20226;-70
2021/12/10 13:51:32;;;;;;;93.70;77.30;;;3.50;99.90;;;;;;5082014;28;20298;-70
2021/12/10 13:54:24;;;;;;;101.23;80.10;;;3.40;99.90;;;;;;5080032;28;20317;-71
2021/12/10 13:57:13;;;;;;;104.30;76.17;;;3.40;99.90;;;;;;5079072;28;20353;-70
2021/12/10 14:00:06;;;;;;;102.20;77.30;;;3.40;99.90;;;;;;5066105;28;20239;-71
2021/12/10 14:02:55;;;;;;;99.80;78.63;;;3.40;99.90;;;;;;5046411;28;20232;-70
2021/12/10 14:05:44;;;;;;;110.33;80.73;;;3.40;99.90;;;;;;5059736;28;20223;-71
2021/12/10 14:08:34;;;;;;;109.40;80.80;;;3.40;99.90;;;;;;5058811;28;20236;-71
2021/12/10 14:11:29;;;;;;;100.17;77.57;;;3.40;99.90;;;;;;5059737;28;20250;-69
2021/12/10 14:14:19;;;;;;;104.27;80.50;;;3.40;99.90;;;;;;5069736;28;20276;-73
2021/12/10 14:17:11;;;;;;;102.67;78.10;;;3.40;99.90;;;;;;5068436;28;20398;-74
2021/12/10 14:20:23;;;;;;;107.53;79.90;;;3.40;99.90;;;;;;5066921;28;20216;-74
2021/12/10 14:23:35;;;;;;;112.07;77.77;;;3.40;99.90;;;;;;5056463;28;20220;-74
2021/12/10 14:26:44;;;;;;;108.93;78.30;;;3.40;99.90;;;;;;5079847;28;20215;-73
2021/12/10 14:30:15;;;;;;;105.80;79.20;;;3.40;99.90;;;;;;5082487;28;20476;-73
2021/12/10 14:33:15;;;;;;;107.30;78.10;;;3.40;99.90;;;;;;5064916;28;20775;-74
2021/12/10 14:36:08;;;;;;;106.83;80.00;;;3.40;99.90;;;;;;5081227;28;20223;-74
2021/12/10 14:39:07;;;;;;;110.50;80.63;;;3.40;99.90;;;;;;5082185;28;20215;-74
2021/12/10 14:42:16;;;;;;;102.53;77.17;;;3.40;99.90;;;;;;5067172;28;20212;-74
2021/12/10 14:45:09;;;;;;;99.37;78.67;;;3.40;99.90;;;;;;5067192;28;20530;-73
2021/12/10 14:48:08;;;;;;;102.00;80.90;;;3.40;99.90;;;;;;5067184;28;20301;-74
2021/12/10 14:51:19;;;;;;;93.53;77.73;;;3.40;99.90;;;;;;5096176;27;20223;-73
2021/12/10 14:54:28;;;;;;;94.77;76.93;;;3.40;99.90;;;;;;5092315;27;20211;-74
2021/12/10 14:57:53;;;;;;;103.73;78.77;;;3.40;99.90;;;;;;5078534;28;20227;-75